Forside
METAR-TAF:

METAR-TAF

Lufthavne :

Olney-Noble Airport

Olney-Noble, Illinois, USA

Breddekreds: 38-43-19N, længdekreds: 088-10-35W, højde: 147 m

Aktuelle vejr

Denne rapport blev lavet for 30 minutter siden, kl. 00:15 UTC
Vind 6 kt fra nordnordøst
Temperatur 0°C
Fugtighed 55%
Tryk 1028 hPa
Sigt: 16.1 km
Brudte skyer i en højde af 4600 ft
Overskyet i en højde af 5000 ft

METAR: KOLY 150015Z AUTO 03006KT 10SM BKN046 OVC050 00/M08 A3036 RMK AO2 T00001080

Tid: 18:45 (00:45 UTC)


TAF: fraværende

Vejrobservationer og prognoser fra mere end 4000 lufthavne (METAR og TAF).

De gule og røde prikker repræsenterer de meteorologiske stationer.

Flyt musen over at se navnet på stationen.

Så klik over at se vejr observationer og prognoser.

At skifte det kort: Klik på de grønne knapper med et sort kors for at zoome ind; på den grønne knap med en bindestreg for at zoome ud; eller på de grønne pile for tilstødende kort.


METAR-TAF: